sensor_id;sensor_type;location;lat;lon;timestamp;pressure;altitude;pressure_sealevel;temperature;humidity
52935;BME280;38802;50.198;19.796;2023-02-22T00:00:16;96059.86;;;3.35;82.37
52935;BME280;38802;50.198;19.796;2023-02-22T00:03:20;96058.18;;;3.34;82.29
52935;BME280;38802;50.198;19.796;2023-02-22T00:05:57;96060.98;;;3.33;82.45
52935;BME280;38802;50.198;19.796;2023-02-22T00:08:27;96059.20;;;3.31;82.66
52935;BME280;38802;50.198;19.796;2023-02-22T00:11:00;96059.91;;;3.30;82.77
52935;BME280;38802;50.198;19.796;2023-02-22T00:13:28;96057.99;;;3.28;82.80
52935;BME280;38802;50.198;19.796;2023-02-22T00:15:58;96055.16;;;3.27;82.97
52935;BME280;38802;50.198;19.796;2023-02-22T00:18:27;96053.92;;;3.24;82.83
52935;BME280;38802;50.198;19.796;2023-02-22T00:20:58;96055.98;;;3.21;83.04
52935;BME280;38802;50.198;19.796;2023-02-22T00:23:29;96058.46;;;3.20;83.01
52935;BME280;38802;50.198;19.796;2023-02-22T00:25:59;96061.98;;;3.18;82.99
52935;BME280;38802;50.198;19.796;2023-02-22T00:28:28;96064.04;;;3.15;82.83
52935;BME280;38802;50.198;19.796;2023-02-22T00:30:57;96062.61;;;3.13;82.94
52935;BME280;38802;50.198;19.796;2023-02-22T00:33:27;96066.41;;;3.13;82.96
52935;BME280;38802;50.198;19.796;2023-02-22T00:35:55;96068.46;;;3.13;83.19
52935;BME280;38802;50.198;19.796;2023-02-22T00:38:23;96074.80;;;3.13;83.11
52935;BME280;38802;50.198;19.796;2023-02-22T00:40:51;96079.33;;;3.12;83.17
52935;BME280;38802;50.198;19.796;2023-02-22T00:43:19;96077.14;;;3.11;83.28
52935;BME280;38802;50.198;19.796;2023-02-22T00:45:47;96073.75;;;3.07;82.96
52935;BME280;38802;50.198;19.796;2023-02-22T00:48:17;96076.30;;;3.05;83.31
52935;BME280;38802;50.198;19.796;2023-02-22T00:50:45;96070.63;;;3.05;83.49
52935;BME280;38802;50.198;19.796;2023-02-22T00:53:15;96073.41;;;3.07;83.46
52935;BME280;38802;50.198;19.796;2023-02-22T00:55:43;96078.92;;;3.07;83.26
52935;BME280;38802;50.198;19.796;2023-02-22T00:58:11;96075.23;;;3.06;83.53
52935;BME280;38802;50.198;19.796;2023-02-22T01:00:41;96080.13;;;3.07;83.53
52935;BME280;38802;50.198;19.796;2023-02-22T01:03:12;96077.88;;;3.10;83.82
52935;BME280;38802;50.198;19.796;2023-02-22T01:05:42;96081.50;;;3.13;83.74
52935;BME280;38802;50.198;19.796;2023-02-22T01:08:12;96081.96;;;3.14;83.34
52935;BME280;38802;50.198;19.796;2023-02-22T01:10:41;96085.81;;;3.12;83.83
52935;BME280;38802;50.198;19.796;2023-02-22T01:13:11;96086.90;;;3.12;84.03
52935;BME280;38802;50.198;19.796;2023-02-22T01:15:41;96087.75;;;3.12;84.02
52935;BME280;38802;50.198;19.796;2023-02-22T01:18:11;96083.95;;;3.09;83.81
52935;BME280;38802;50.198;19.796;2023-02-22T01:20:39;96084.23;;;3.10;84.01
52935;BME280;38802;50.198;19.796;2023-02-22T01:23:08;96084.84;;;3.12;84.23
52935;BME280;38802;50.198;19.796;2023-02-22T01:25:37;96081.09;;;3.11;84.05
52935;BME280;38802;50.198;19.796;2023-02-22T01:28:07;96082.80;;;3.11;84.40
52935;BME280;38802;50.198;19.796;2023-02-22T01:30:36;96082.96;;;3.11;83.98
52935;BME280;38802;50.198;19.796;2023-02-22T01:33:06;96080.53;;;3.12;84.51
52935;BME280;38802;50.198;19.796;2023-02-22T01:35:36;96079.62;;;3.13;84.33
52935;BME280;38802;50.198;19.796;2023-02-22T01:38:09;96080.34;;;3.12;84.30
52935;BME280;38802;50.198;19.796;2023-02-22T01:40:42;96083.09;;;3.12;84.52
52935;BME280;38802;50.198;19.796;2023-02-22T01:43:23;96083.13;;;3.11;84.51
52935;BME280;38802;50.198;19.796;2023-02-22T01:45:58;96082.73;;;3.10;84.48
52935;BME280;38802;50.198;19.796;2023-02-22T01:48:40;96080.20;;;3.12;84.64
52935;BME280;38802;50.198;19.796;2023-02-22T01:51:15;96076.45;;;3.11;84.54
52935;BME280;38802;50.198;19.796;2023-02-22T01:53:55;96074.35;;;3.15;84.63
52935;BME280;38802;50.198;19.796;2023-02-22T01:56:26;96072.79;;;3.19;84.82
52935;BME280;38802;50.198;19.796;2023-02-22T01:59:05;96074.02;;;3.21;84.64
52935;BME280;38802;50.198;19.796;2023-02-22T02:01:37;96078.04;;;3.20;84.80
52935;BME280;38802;50.198;19.796;2023-02-22T02:04:10;96076.89;;;3.19;84.97
52935;BME280;38802;50.198;19.796;2023-02-22T02:06:38;96077.77;;;3.18;84.68
52935;BME280;38802;50.198;19.796;2023-02-22T02:12:00;96082.17;;;3.13;84.52
52935;BME280;38802;50.198;19.796;2023-02-22T02:14:30;96081.96;;;3.14;84.91
52935;BME280;38802;50.198;19.796;2023-02-22T02:17:08;96081.87;;;3.16;84.92
52935;BME280;38802;50.198;19.796;2023-02-22T02:25:14;96081.19;;;3.09;84.98
52935;BME280;38802;50.198;19.796;2023-02-22T02:33:42;96079.08;;;3.04;85.01
52935;BME280;38802;50.198;19.796;2023-02-22T02:36:52;96077.09;;;3.02;85.01
52935;BME280;38802;50.198;19.796;2023-02-22T02:39:26;96076.55;;;3.00;85.17
52935;BME280;38802;50.198;19.796;2023-02-22T02:41:56;96077.78;;;2.99;85.05
52935;BME280;38802;50.198;19.796;2023-02-22T02:45:06;96081.44;;;2.98;85.39
52935;BME280;38802;50.198;19.796;2023-02-22T02:47:41;96077.31;;;2.99;85.36
52935;BME280;38802;50.198;19.796;2023-02-22T02:50:19;96077.70;;;2.98;85.42
52935;BME280;38802;50.198;19.796;2023-02-22T02:52:52;96081.38;;;2.96;85.19
52935;BME280;38802;50.198;19.796;2023-02-22T02:55:22;96082.77;;;2.96;85.05
52935;BME280;38802;50.198;19.796;2023-02-22T02:57:50;96082.00;;;2.97;85.21
52935;BME280;38802;50.198;19.796;2023-02-22T03:00:24;96081.42;;;2.96;85.16
52935;BME280;38802;50.198;19.796;2023-02-22T03:03:05;96083.92;;;2.94;85.22
52935;BME280;38802;50.198;19.796;2023-02-22T03:06:16;96084.11;;;2.94;85.20
52935;BME280;38802;50.198;19.796;2023-02-22T03:09:10;96091.21;;;2.92;85.23
52935;BME280;38802;50.198;19.796;2023-02-22T03:25:50;96102.02;;;2.95;85.40
52935;BME280;38802;50.198;19.796;2023-02-22T03:28:23;96102.89;;;2.95;85.36
52935;BME280;38802;50.198;19.796;2023-02-22T03:31:02;96100.75;;;2.97;85.47
52935;BME280;38802;50.198;19.796;2023-02-22T03:33:38;96099.95;;;2.96;85.37
52935;BME280;38802;50.198;19.796;2023-02-22T03:36:17;96105.01;;;2.94;85.40
52935;BME280;38802;50.198;19.796;2023-02-22T03:38:47;96108.36;;;2.93;85.41
52935;BME280;38802;50.198;19.796;2023-02-22T03:41:19;96108.79;;;2.94;85.54
52935;BME280;38802;50.198;19.796;2023-02-22T03:43:56;96105.04;;;2.97;85.58
52935;BME280;38802;50.198;19.796;2023-02-22T03:46:27;96102.42;;;2.97;85.38
52935;BME280;38802;50.198;19.796;2023-02-22T03:49:05;96105.18;;;2.97;85.72
52935;BME280;38802;50.198;19.796;2023-02-22T03:51:38;96105.55;;;2.94;85.52
52935;BME280;38802;50.198;19.796;2023-02-22T03:54:08;96108.48;;;2.93;85.64
52935;BME280;38802;50.198;19.796;2023-02-22T03:56:53;96109.70;;;2.90;85.72
52935;BME280;38802;50.198;19.796;2023-02-22T03:59:24;96107.41;;;2.88;85.50
52935;BME280;38802;50.198;19.796;2023-02-22T04:01:54;96106.33;;;2.89;85.63
52935;BME280;38802;50.198;19.796;2023-02-22T04:04:24;96115.00;;;2.90;85.63
52935;BME280;38802;50.198;19.796;2023-02-22T04:06:52;96116.30;;;2.88;85.51
52935;BME280;38802;50.198;19.796;2023-02-22T04:09:21;96116.34;;;2.88;85.64
52935;BME280;38802;50.198;19.796;2023-02-22T04:11:49;96117.92;;;2.90;85.81
52935;BME280;38802;50.198;19.796;2023-02-22T04:14:18;96117.00;;;2.91;85.69
52935;BME280;38802;50.198;19.796;2023-02-22T04:16:46;96115.80;;;2.92;85.74
52935;BME280;38802;50.198;19.796;2023-02-22T04:19:14;96118.81;;;2.90;85.62
52935;BME280;38802;50.198;19.796;2023-02-22T04:21:42;96118.66;;;2.89;85.60
52935;BME280;38802;50.198;19.796;2023-02-22T04:24:17;96116.20;;;2.94;85.97
52935;BME280;38802;50.198;19.796;2023-02-22T04:26:45;96112.21;;;2.97;85.93
52935;BME280;38802;50.198;19.796;2023-02-22T04:29:13;96115.80;;;2.98;85.72
52935;BME280;38802;50.198;19.796;2023-02-22T04:31:44;96108.59;;;2.98;85.71
52935;BME280;38802;50.198;19.796;2023-02-22T04:34:12;96116.52;;;3.00;85.96
52935;BME280;38802;50.198;19.796;2023-02-22T04:36:41;96120.31;;;2.97;85.83
52935;BME280;38802;50.198;19.796;2023-02-22T04:39:12;96124.41;;;2.94;85.79
52935;BME280;38802;50.198;19.796;2023-02-22T04:41:40;96119.80;;;2.94;85.55
52935;BME280;38802;50.198;19.796;2023-02-22T04:44:08;96120.27;;;2.95;85.69
52935;BME280;38802;50.198;19.796;2023-02-22T04:46:37;96120.35;;;2.90;85.64
52935;BME280;38802;50.198;19.796;2023-02-22T04:49:05;96117.08;;;2.90;86.07
52935;BME280;38802;50.198;19.796;2023-02-22T04:51:46;96116.25;;;2.99;86.03
52935;BME280;38802;50.198;19.796;2023-02-22T04:54:15;96114.22;;;3.01;85.92
52935;BME280;38802;50.198;19.796;2023-02-22T04:56:46;96120.54;;;3.02;86.03
52935;BME280;38802;50.198;19.796;2023-02-22T04:59:14;96119.60;;;3.04;85.88
52935;BME280;38802;50.198;19.796;2023-02-22T05:01:45;96119.15;;;3.06;85.92
52935;BME280;38802;50.198;19.796;2023-02-22T05:04:13;96118.63;;;3.09;85.67
52935;BME280;38802;50.198;19.796;2023-02-22T05:06:41;96117.78;;;3.06;85.82
52935;BME280;38802;50.198;19.796;2023-02-22T05:09:09;96116.66;;;3.14;86.00
52935;BME280;38802;50.198;19.796;2023-02-22T05:11:37;96118.19;;;3.17;85.92
52935;BME280;38802;50.198;19.796;2023-02-22T05:14:05;96117.00;;;3.23;86.10
52935;BME280;38802;50.198;19.796;2023-02-22T05:16:34;96117.08;;;3.28;86.29
52935;BME280;38802;50.198;19.796;2023-02-22T05:19:03;96115.31;;;3.38;86.27
52935;BME280;38802;50.198;19.796;2023-02-22T05:21:32;96115.32;;;3.43;86.26
52935;BME280;38802;50.198;19.796;2023-02-22T05:24:00;96117.81;;;3.45;86.13
52935;BME280;38802;50.198;19.796;2023-02-22T05:26:28;96119.04;;;3.51;86.09
52935;BME280;38802;50.198;19.796;2023-02-22T05:28:56;96120.29;;;3.60;86.08
52935;BME280;38802;50.198;19.796;2023-02-22T05:31:24;96123.66;;;3.64;86.02
52935;BME280;38802;50.198;19.796;2023-02-22T05:33:52;96127.05;;;3.61;85.90
52935;BME280;38802;50.198;19.796;2023-02-22T05:36:20;96132.13;;;3.63;85.93
52935;BME280;38802;50.198;19.796;2023-02-22T05:38:48;96133.20;;;3.65;85.90
52935;BME280;38802;50.198;19.796;2023-02-22T05:41:16;96134.76;;;3.65;85.63
52935;BME280;38802;50.198;19.796;2023-02-22T05:43:45;96138.39;;;3.61;85.28
52935;BME280;38802;50.198;19.796;2023-02-22T05:46:13;96140.33;;;3.52;84.93
52935;BME280;38802;50.198;19.796;2023-02-22T05:48:42;96145.02;;;3.51;85.23
52935;BME280;38802;50.198;19.796;2023-02-22T05:51:10;96144.57;;;3.53;85.19
52935;BME280;38802;50.198;19.796;2023-02-22T05:53:38;96149.97;;;3.45;85.21
52935;BME280;38802;50.198;19.796;2023-02-22T05:56:06;96157.32;;;3.39;84.93
52935;BME280;38802;50.198;19.796;2023-02-22T05:58:34;96158.05;;;3.41;85.42
52935;BME280;38802;50.198;19.796;2023-02-22T06:01:01;96162.84;;;3.44;85.16
52935;BME280;38802;50.198;19.796;2023-02-22T06:03:30;96163.11;;;3.46;85.51
52935;BME280;38802;50.198;19.796;2023-02-22T06:05:58;96167.05;;;3.50;85.36
52935;BME280;38802;50.198;19.796;2023-02-22T06:08:26;96170.48;;;3.47;84.99
52935;BME280;38802;50.198;19.796;2023-02-22T06:10:54;96171.73;;;3.42;85.03
52935;BME280;38802;50.198;19.796;2023-02-22T06:13:22;96180.52;;;3.35;84.74
52935;BME280;38802;50.198;19.796;2023-02-22T06:15:50;96183.52;;;3.31;84.71
52935;BME280;38802;50.198;19.796;2023-02-22T06:18:18;96184.39;;;3.25;84.88
52935;BME280;38802;50.198;19.796;2023-02-22T06:20:46;96187.33;;;3.21;84.80
52935;BME280;38802;50.198;19.796;2023-02-22T06:23:14;96186.92;;;3.19;84.88
52935;BME280;38802;50.198;19.796;2023-02-22T06:25:42;96190.78;;;3.21;84.85
52935;BME280;38802;50.198;19.796;2023-02-22T06:28:10;96190.77;;;3.24;85.13
52935;BME280;38802;50.198;19.796;2023-02-22T06:30:39;96190.20;;;3.28;85.24
52935;BME280;38802;50.198;19.796;2023-02-22T06:33:10;96190.27;;;3.39;85.34
52935;BME280;38802;50.198;19.796;2023-02-22T06:35:38;96189.75;;;3.42;85.09
52935;BME280;38802;50.198;19.796;2023-02-22T06:38:06;96196.33;;;3.41;85.03
52935;BME280;38802;50.198;19.796;2023-02-22T06:40:35;96196.06;;;3.37;84.79
52935;BME280;38802;50.198;19.796;2023-02-22T06:43:03;96201.98;;;3.38;85.14
52935;BME280;38802;50.198;19.796;2023-02-22T06:45:31;96203.58;;;3.38;84.84
52935;BME280;38802;50.198;19.796;2023-02-22T06:48:00;96202.94;;;3.37;84.86
52935;BME280;38802;50.198;19.796;2023-02-22T06:50:29;96205.02;;;3.33;84.66
52935;BME280;38802;50.198;19.796;2023-02-22T06:52:58;96201.02;;;3.37;85.11
52935;BME280;38802;50.198;19.796;2023-02-22T06:55:28;96205.20;;;3.42;85.00
52935;BME280;38802;50.198;19.796;2023-02-22T06:57:57;96208.77;;;3.50;85.35
52935;BME280;38802;50.198;19.796;2023-02-22T07:00:26;96211.77;;;3.52;85.01
52935;BME280;38802;50.198;19.796;2023-02-22T07:02:55;96211.56;;;3.49;84.98
52935;BME280;38802;50.198;19.796;2023-02-22T07:05:25;96213.27;;;3.50;84.91
52935;BME280;38802;50.198;19.796;2023-02-22T07:07:58;96210.77;;;3.51;84.97
52935;BME280;38802;50.198;19.796;2023-02-22T07:10:29;96212.52;;;3.51;84.72
52935;BME280;38802;50.198;19.796;2023-02-22T07:12:58;96217.58;;;3.49;84.87
52935;BME280;38802;50.198;19.796;2023-02-22T07:15:28;96215.88;;;3.49;84.66
52935;BME280;38802;50.198;19.796;2023-02-22T07:17:57;96216.14;;;3.47;84.84
52935;BME280;38802;50.198;19.796;2023-02-22T07:20:27;96217.63;;;3.48;84.74
52935;BME280;38802;50.198;19.796;2023-02-22T07:22:55;96217.44;;;3.52;84.77
52935;BME280;38802;50.198;19.796;2023-02-22T07:25:24;96218.68;;;3.57;85.02
52935;BME280;38802;50.198;19.796;2023-02-22T07:27:52;96217.81;;;3.60;84.85
52935;BME280;38802;50.198;19.796;2023-02-22T07:30:23;96219.57;;;3.60;84.63
52935;BME280;38802;50.198;19.796;2023-02-22T07:32:59;96224.02;;;3.63;84.86
52935;BME280;38802;50.198;19.796;2023-02-22T07:35:33;96221.35;;;3.65;84.74
52935;BME280;38802;50.198;19.796;2023-02-22T07:38:06;96218.62;;;3.64;84.76
52935;BME280;38802;50.198;19.796;2023-02-22T07:40:38;96220.59;;;3.66;84.62
52935;BME280;38802;50.198;19.796;2023-02-22T07:43:15;96220.61;;;3.69;84.65
52935;BME280;38802;50.198;19.796;2023-02-22T07:45:44;96217.17;;;3.72;84.74
52935;BME280;38802;50.198;19.796;2023-02-22T07:48:14;96217.99;;;3.75;84.78
52935;BME280;38802;50.198;19.796;2023-02-22T07:50:44;96215.42;;;3.82;84.64
52935;BME280;38802;50.198;19.796;2023-02-22T07:53:18;96218.38;;;3.84;84.53
52935;BME280;38802;50.198;19.796;2023-02-22T07:55:47;96217.30;;;3.88;84.71
52935;BME280;38802;50.198;19.796;2023-02-22T07:58:21;96220.16;;;3.92;84.44
52935;BME280;38802;50.198;19.796;2023-02-22T08:00:49;96217.29;;;3.95;84.64
52935;BME280;38802;50.198;19.796;2023-02-22T08:03:19;96213.14;;;3.98;84.39
52935;BME280;38802;50.198;19.796;2023-02-22T08:05:49;96215.27;;;4.00;84.45
52935;BME280;38802;50.198;19.796;2023-02-22T08:08:18;96214.59;;;4.03;84.45
52935;BME280;38802;50.198;19.796;2023-02-22T08:10:47;96214.52;;;4.07;84.49
52935;BME280;38802;50.198;19.796;2023-02-22T08:13:16;96218.89;;;4.09;84.37
52935;BME280;38802;50.198;19.796;2023-02-22T08:15:44;96221.77;;;4.13;84.56
52935;BME280;38802;50.198;19.796;2023-02-22T08:18:15;96219.99;;;4.17;84.46
52935;BME280;38802;50.198;19.796;2023-02-22T08:20:45;96213.79;;;4.20;84.31
52935;BME280;38802;50.198;19.796;2023-02-22T08:23:15;96218.19;;;4.24;84.23
52935;BME280;38802;50.198;19.796;2023-02-22T08:25:43;96215.14;;;4.26;84.07
52935;BME280;38802;50.198;19.796;2023-02-22T08:28:13;96215.81;;;4.29;84.29
52935;BME280;38802;50.198;19.796;2023-02-22T08:30:42;96219.13;;;4.37;84.11
52935;BME280;38802;50.198;19.796;2023-02-22T08:33:12;96221.10;;;4.39;84.22
52935;BME280;38802;50.198;19.796;2023-02-22T08:35:42;96222.74;;;4.40;83.93
52935;BME280;38802;50.198;19.796;2023-02-22T08:38:22;96222.23;;;4.40;83.96
52935;BME280;38802;50.198;19.796;2023-02-22T08:40:51;96224.91;;;4.42;83.71
52935;BME280;38802;50.198;19.796;2023-02-22T08:43:20;96225.82;;;4.38;83.50
52935;BME280;38802;50.198;19.796;2023-02-22T08:45:48;96227.70;;;4.35;83.52
52935;BME280;38802;50.198;19.796;2023-02-22T08:48:17;96228.64;;;4.37;83.83
52935;BME280;38802;50.198;19.796;2023-02-22T08:50:45;96225.36;;;4.40;83.77
52935;BME280;38802;50.198;19.796;2023-02-22T08:53:14;96226.19;;;4.40;83.47
52935;BME280;38802;50.198;19.796;2023-02-22T08:55:44;96230.23;;;4.42;83.46
52935;BME280;38802;50.198;19.796;2023-02-22T08:58:12;96227.20;;;4.44;83.40
52935;BME280;38802;50.198;19.796;2023-02-22T09:00:41;96228.70;;;4.48;83.33
52935;BME280;38802;50.198;19.796;2023-02-22T09:03:13;96226.31;;;4.47;83.20
52935;BME280;38802;50.198;19.796;2023-02-22T09:05:42;96228.05;;;4.47;82.99
52935;BME280;38802;50.198;19.796;2023-02-22T09:08:11;96226.25;;;4.45;82.71
52935;BME280;38802;50.198;19.796;2023-02-22T09:10:39;96229.89;;;4.42;82.87
52935;BME280;38802;50.198;19.796;2023-02-22T09:13:07;96234.32;;;4.43;82.63
52935;BME280;38802;50.198;19.796;2023-02-22T09:15:36;96237.67;;;4.41;82.39
52935;BME280;38802;50.198;19.796;2023-02-22T09:18:06;96238.04;;;4.44;82.22
52935;BME280;38802;50.198;19.796;2023-02-22T09:20:36;96240.23;;;4.45;81.12
52935;BME280;38802;50.198;19.796;2023-02-22T09:23:05;96237.71;;;4.44;80.36
52935;BME280;38802;50.198;19.796;2023-02-22T09:25:34;96238.77;;;4.43;80.75
52935;BME280;38802;50.198;19.796;2023-02-22T09:28:02;96242.46;;;4.48;80.64
52935;BME280;38802;50.198;19.796;2023-02-22T09:30:32;96237.14;;;4.50;80.83
52935;BME280;38802;50.198;19.796;2023-02-22T09:33:06;96238.38;;;4.58;80.83
52935;BME280;38802;50.198;19.796;2023-02-22T09:35:38;96238.48;;;4.68;80.85
52935;BME280;38802;50.198;19.796;2023-02-22T09:38:12;96234.30;;;4.75;80.69
52935;BME280;38802;50.198;19.796;2023-02-22T09:40:46;96235.52;;;4.84;80.64
52935;BME280;38802;50.198;19.796;2023-02-22T09:51:49;96236.70;;;4.90;79.24
52935;BME280;38802;50.198;19.796;2023-02-22T09:54:44;96233.99;;;4.95;78.76
52935;BME280;38802;50.198;19.796;2023-02-22T09:57:25;96237.52;;;4.96;78.73
52935;BME280;38802;50.198;19.796;2023-02-22T10:00:03;96235.83;;;5.01;78.33
52935;BME280;38802;50.198;19.796;2023-02-22T10:02:57;96235.98;;;5.02;77.47
52935;BME280;38802;50.198;19.796;2023-02-22T10:05:35;96233.71;;;5.02;77.58
52935;BME280;38802;50.198;19.796;2023-02-22T10:08:14;96229.66;;;5.07;77.85
52935;BME280;38802;50.198;19.796;2023-02-22T10:10:45;96233.16;;;5.11;77.05
52935;BME280;38802;50.198;19.796;2023-02-22T10:13:45;96233.36;;;5.14;76.76
52935;BME280;38802;50.198;19.796;2023-02-22T10:16:42;96229.11;;;5.18;77.08
52935;BME280;38802;50.198;19.796;2023-02-22T10:27:36;96219.92;;;5.36;75.23
52935;BME280;38802;50.198;19.796;2023-02-22T10:33:11;96224.77;;;5.44;76.21
52935;BME280;38802;50.198;19.796;2023-02-22T10:35:43;96220.29;;;5.50;75.12
52935;BME280;38802;50.198;19.796;2023-02-22T10:38:19;96224.05;;;5.48;74.86
52935;BME280;38802;50.198;19.796;2023-02-22T10:41:02;96220.33;;;5.47;74.96
52935;BME280;38802;50.198;19.796;2023-02-22T10:43:31;96224.79;;;5.50;75.03
52935;BME280;38802;50.198;19.796;2023-02-22T10:46:03;96219.80;;;5.52;74.16
52935;BME280;38802;50.198;19.796;2023-02-22T10:48:35;96218.63;;;5.49;73.58
52935;BME280;38802;50.198;19.796;2023-02-22T10:51:07;96218.17;;;5.43;74.42
52935;BME280;38802;50.198;19.796;2023-02-22T10:53:37;96218.15;;;5.43;74.04
52935;BME280;38802;50.198;19.796;2023-02-22T10:58:59;96221.11;;;5.42;73.70
52935;BME280;38802;50.198;19.796;2023-02-22T11:01:37;96218.33;;;5.40;73.27
52935;BME280;38802;50.198;19.796;2023-02-22T11:04:14;96223.00;;;5.40;73.70
52935;BME280;38802;50.198;19.796;2023-02-22T11:06:46;96220.98;;;5.45;73.87
52935;BME280;38802;50.198;19.796;2023-02-22T11:09:17;96218.49;;;5.48;73.49
52935;BME280;38802;50.198;19.796;2023-02-22T11:11:47;96218.70;;;5.50;72.50
52935;BME280;38802;50.198;19.796;2023-02-22T11:14:27;96218.50;;;5.48;72.60
52935;BME280;38802;50.198;19.796;2023-02-22T11:16:57;96212.26;;;5.49;72.86
52935;BME280;38802;50.198;19.796;2023-02-22T11:19:29;96213.90;;;5.48;72.15
52935;BME280;38802;50.198;19.796;2023-02-22T11:24:32;96218.08;;;5.44;72.26
52935;BME280;38802;50.198;19.796;2023-02-22T11:27:24;96218.58;;;5.47;72.51
52935;BME280;38802;50.198;19.796;2023-02-22T11:30:19;96214.63;;;5.52;72.63
52935;BME280;38802;50.198;19.796;2023-02-22T11:32:47;96212.80;;;5.56;72.24
52935;BME280;38802;50.198;19.796;2023-02-22T11:40:37;96209.73;;;5.56;71.43
52935;BME280;38802;50.198;19.796;2023-02-22T11:43:14;96203.82;;;5.54;71.37
52935;BME280;38802;50.198;19.796;2023-02-22T11:46:22;96207.84;;;5.56;71.33
52935;BME280;38802;50.198;19.796;2023-02-22T11:54:54;96205.13;;;5.58;72.06
52935;BME280;38802;50.198;19.796;2023-02-22T11:57:52;96202.39;;;5.63;71.46
52935;BME280;38802;50.198;19.796;2023-02-22T12:00:26;96202.91;;;5.63;71.45
52935;BME280;38802;50.198;19.796;2023-02-22T12:05:53;96203.00;;;5.67;70.95
52935;BME280;38802;50.198;19.796;2023-02-22T12:17:15;96200.17;;;5.79;70.04
52935;BME280;38802;50.198;19.796;2023-02-22T12:19:53;96198.54;;;5.76;70.05
52935;BME280;38802;50.198;19.796;2023-02-22T12:22:31;96199.70;;;5.73;69.49
52935;BME280;38802;50.198;19.796;2023-02-22T12:27:48;96197.62;;;5.68;69.07
52935;BME280;38802;50.198;19.796;2023-02-22T12:30:22;96196.23;;;5.65;69.91
52935;BME280;38802;50.198;19.796;2023-02-22T12:32:57;96194.21;;;5.70;69.59
52935;BME280;38802;50.198;19.796;2023-02-22T12:35:33;96192.79;;;5.76;70.16
52935;BME280;38802;50.198;19.796;2023-02-22T12:38:22;96189.91;;;5.81;69.51
52935;BME280;38802;50.198;19.796;2023-02-22T12:43:39;96190.85;;;5.85;69.77
52935;BME280;38802;50.198;19.796;2023-02-22T12:46:19;96186.05;;;5.90;68.43
52935;BME280;38802;50.198;19.796;2023-02-22T12:51:27;96185.59;;;5.84;68.77
52935;BME280;38802;50.198;19.796;2023-02-22T12:57:05;96183.96;;;5.90;69.07
52935;BME280;38802;50.198;19.796;2023-02-22T12:59:48;96181.98;;;5.92;68.54
52935;BME280;38802;50.198;19.796;2023-02-22T13:02:19;96182.91;;;5.93;68.46
52935;BME280;38802;50.198;19.796;2023-02-22T13:04:48;96183.09;;;5.96;68.57
52935;BME280;38802;50.198;19.796;2023-02-22T13:07:23;96182.56;;;5.99;68.83
52935;BME280;38802;50.198;19.796;2023-02-22T13:10:03;96180.35;;;6.01;69.07
52935;BME280;38802;50.198;19.796;2023-02-22T13:15:28;96182.40;;;6.04;68.78
52935;BME280;38802;50.198;19.796;2023-02-22T13:18:01;96183.29;;;6.01;67.91
52935;BME280;38802;50.198;19.796;2023-02-22T13:20:47;96185.10;;;5.91;67.11
52935;BME280;38802;50.198;19.796;2023-02-22T13:23:38;96188.08;;;5.85;68.08
52935;BME280;38802;50.198;19.796;2023-02-22T13:28:54;96186.49;;;5.83;68.11
52935;BME280;38802;50.198;19.796;2023-02-22T13:39:50;96189.27;;;5.80;67.52
52935;BME280;38802;50.198;19.796;2023-02-22T13:54:05;96197.14;;;5.59;67.70
52935;BME280;38802;50.198;19.796;2023-02-22T13:56:34;96199.39;;;5.59;67.49
52935;BME280;38802;50.198;19.796;2023-02-22T13:59:03;96195.11;;;5.55;67.67
52935;BME280;38802;50.198;19.796;2023-02-22T14:01:44;96193.79;;;5.55;67.26
52935;BME280;38802;50.198;19.796;2023-02-22T14:04:38;96194.04;;;5.54;67.52
52935;BME280;38802;50.198;19.796;2023-02-22T14:10:01;96198.77;;;5.55;66.90
52935;BME280;38802;50.198;19.796;2023-02-22T14:17:57;96202.17;;;5.45;67.14
52935;BME280;38802;50.198;19.796;2023-02-22T14:20:37;96198.79;;;5.44;67.33
52935;BME280;38802;50.198;19.796;2023-02-22T14:31:26;96197.18;;;5.50;67.76
52935;BME280;38802;50.198;19.796;2023-02-22T14:34:08;96197.38;;;5.53;67.64
52935;BME280;38802;50.198;19.796;2023-02-22T14:37:02;96200.66;;;5.50;67.57
52935;BME280;38802;50.198;19.796;2023-02-22T14:39:43;96202.05;;;5.47;67.34
52935;BME280;38802;50.198;19.796;2023-02-22T14:42:17;96203.98;;;5.43;67.43
52935;BME280;38802;50.198;19.796;2023-02-22T14:47:24;96205.73;;;5.34;67.25
52935;BME280;38802;50.198;19.796;2023-02-22T14:50:03;96208.23;;;5.33;67.70
52935;BME280;38802;50.198;19.796;2023-02-22T14:52:35;96205.23;;;5.37;67.70
52935;BME280;38802;50.198;19.796;2023-02-22T14:55:19;96208.25;;;5.42;67.39
52935;BME280;38802;50.198;19.796;2023-02-22T14:57:57;96206.45;;;5.40;67.43
52935;BME280;38802;50.198;19.796;2023-02-22T15:00:43;96206.64;;;5.37;67.36
52935;BME280;38802;50.198;19.796;2023-02-22T15:03:28;96206.58;;;5.35;67.75
52935;BME280;38802;50.198;19.796;2023-02-22T15:06:22;96207.42;;;5.35;67.76
52935;BME280;38802;50.198;19.796;2023-02-22T15:09:11;96209.54;;;5.34;67.61
52935;BME280;38802;50.198;19.796;2023-02-22T15:11:43;96211.63;;;5.28;67.59
52935;BME280;38802;50.198;19.796;2023-02-22T15:14:16;96209.52;;;5.27;67.81
52935;BME280;38802;50.198;19.796;2023-02-22T15:16:58;96204.73;;;5.34;68.01
52935;BME280;38802;50.198;19.796;2023-02-22T15:19:30;96206.95;;;5.40;67.82
52935;BME280;38802;50.198;19.796;2023-02-22T15:22:00;96204.63;;;5.50;67.98
52935;BME280;38802;50.198;19.796;2023-02-22T15:24:32;96200.55;;;5.54;68.00
52935;BME280;38802;50.198;19.796;2023-02-22T15:27:04;96199.63;;;5.55;68.03
52935;BME280;38802;50.198;19.796;2023-02-22T15:29:39;96201.69;;;5.58;67.94
52935;BME280;38802;50.198;19.796;2023-02-22T15:32:29;96202.06;;;5.57;67.91
52935;BME280;38802;50.198;19.796;2023-02-22T15:37:45;96200.66;;;5.58;68.25
52935;BME280;38802;50.198;19.796;2023-02-22T15:40:18;96205.31;;;5.63;68.24
52935;BME280;38802;50.198;19.796;2023-02-22T15:42:52;96200.03;;;5.71;68.32
52935;BME280;38802;50.198;19.796;2023-02-22T15:45:21;96201.20;;;5.82;68.39